Time;durP1;ratioP1;P1;durP2;ratioP2;P2;SDS_P1;SDS_P2;PMS_P1;PMS_P2;Temp;Humidity;BMP_temperature;BMP_pressure;BME280_temperature;BME280_humidity;BME280_pressure;Samples;Min_cycle;Max_cycle;Signal;HPM_P1;HPM_P2
2021/08/17 00:01:08;;;;;;;4.15;2.58;;;;;;;13.65;95.12;99890.47;4863736;29;20053;-90
2021/08/17 00:03:34;;;;;;;6.57;2.78;;;;;;;13.78;95.65;99913.69;4865372;29;20036;-89
2021/08/17 00:06:01;;;;;;;3.92;2.47;;;;;;;13.82;96.13;99910.25;4864956;29;20030;-90
2021/08/17 00:11:02;;;;;;;5.95;2.88;;;;;;;13.59;96.11;99873.31;5231955;23;20735;-87
2021/08/17 00:21:16;;;;;;;6.93;2.67;;;;;;;13.47;96.50;99871.72;4978471;23;20107;-90
2021/08/17 00:23:42;;;;;;;7.13;3.22;;;;;;;13.37;97.05;99858.84;4846434;29;20100;-91
2021/08/17 00:26:07;;;;;;;6.45;2.88;;;;;;;13.93;97.44;99942.88;4847484;29;20026;-91
2021/08/17 00:28:33;;;;;;;5.70;3.10;;;;;;;13.47;97.37;99874.44;4847004;29;20042;-91
2021/08/17 00:30:59;;;;;;;6.35;3.00;;;;;;;13.66;97.33;99904.78;4847736;29;20117;-90
2021/08/17 00:33:24;;;;;;;5.22;3.08;;;;;;;13.31;98.12;99847.13;4846571;29;20030;-89
2021/08/17 00:35:54;;;;;;;9.00;3.58;;;;;;;13.84;98.35;99931.63;4845227;29;20094;-89
2021/08/17 00:38:21;;;;;;;10.88;3.63;;;;;;;13.39;98.55;99871.03;4845643;29;20045;-88
2021/08/17 00:40:46;;;;;;;10.52;3.70;;;;;;;13.32;98.79;99854.16;4846774;29;20033;-89
2021/08/17 00:43:12;;;;;;;7.70;3.42;;;;;;;13.40;98.73;99861.06;4850953;29;20018;-89
2021/08/17 00:45:38;;;;;;;12.05;4.15;;;;;;;13.85;99.47;99914.34;4863599;29;20018;-89
2021/08/17 00:55:08;;;;;;;8.88;4.30;;;;;;;13.80;99.55;99919.66;4850090;29;20065;-90
2021/08/17 00:57:33;;;;;;;10.30;4.13;;;;;;;13.27;99.97;99837.03;4844788;29;20039;-90
2021/08/17 00:59:59;;;;;;;11.07;4.07;;;;;;;13.31;99.77;99841.72;4846236;29;20018;-89
2021/08/17 01:02:25;;;;;;;9.93;3.60;;;;;;;13.82;99.83;99909.44;4844993;29;20050;-89
2021/08/17 01:04:50;;;;;;;9.98;3.60;;;;;;;13.33;100.00;99844.16;4843811;29;20490;-89
2021/08/17 01:07:16;;;;;;;7.50;3.50;;;;;;;13.20;100.00;99826.31;4844819;29;20034;-89
2021/08/17 01:09:43;;;;;;;7.70;3.38;;;;;;;13.27;100.00;99832.44;4844313;29;20041;-90
2021/08/17 01:12:11;;;;;;;7.10;3.92;;;;;;;13.30;100.00;99850.06;4844706;29;20105;-89
2021/08/17 01:14:37;;;;;;;9.40;3.28;;;;;;;13.26;100.00;99843.50;4844606;29;20079;-90
2021/08/17 01:17:03;;;;;;;9.57;4.45;;;;;;;13.42;100.00;99850.03;4843685;29;20043;-89
2021/08/17 01:19:29;;;;;;;8.93;4.30;;;;;;;13.49;100.00;99854.22;4844507;29;20135;-89
2021/08/17 01:21:54;;;;;;;12.30;4.40;;;;;;;13.78;100.00;99897.47;4844669;29;20034;-90
2021/08/17 01:24:20;;;;;;;15.82;5.95;;;;;;;13.32;100.00;99823.63;4844896;29;20051;-91
2021/08/17 01:26:46;;;;;;;9.68;4.40;;;;;;;13.79;100.00;99918.03;4843883;29;20050;-89
2021/08/17 01:29:15;;;;;;;11.23;4.03;;;;;;;13.27;100.00;99818.09;4844567;29;20030;-89
2021/08/17 01:31:41;;;;;;;8.50;4.40;;;;;;;13.43;100.00;99846.25;4843545;29;20026;-90
2021/08/17 01:34:07;;;;;;;12.48;4.25;;;;;;;13.75;100.00;99897.94;4843683;29;20485;-90
2021/08/17 01:36:33;;;;;;;5.90;3.70;;;;;;;13.35;100.00;99836.66;4847377;29;20476;-89
2021/08/17 01:38:58;;;;;;;8.88;4.13;;;;;;;13.65;100.00;99874.25;4847147;29;20027;-90
2021/08/17 01:41:24;;;;;;;8.48;3.70;;;;;;;13.66;100.00;99883.97;4846725;29;20045;-90
2021/08/17 01:43:51;;;;;;;10.27;4.05;;;;;;;13.53;100.00;99871.56;4846885;29;20050;-89
2021/08/17 01:46:17;;;;;;;7.55;4.25;;;;;;;13.30;100.00;99847.34;4847412;29;20052;-90
2021/08/17 01:48:44;;;;;;;7.55;4.00;;;;;;;13.25;100.00;99831.06;4862509;29;20098;-89
2021/08/17 01:51:10;;;;;;;10.05;4.20;;;;;;;13.45;100.00;99855.75;4847806;29;20085;-90
2021/08/17 01:53:37;;;;;;;6.85;4.00;;;;;;;13.83;100.00;99894.84;4845186;29;20030;-89
2021/08/17 01:56:10;;;;;;;9.18;4.10;;;;;;;13.67;100.00;99879.41;4846881;29;20086;-90
2021/08/17 01:58:37;;;;;;;6.53;3.95;;;;;;;13.85;100.00;99898.94;4847213;29;20018;-90
2021/08/17 02:01:05;;;;;;;6.38;3.78;;;;;;;13.50;100.00;99839.63;4846219;29;20034;-90
2021/08/17 02:03:31;;;;;;;4.95;3.85;;;;;;;13.64;100.00;99853.66;4848613;29;20094;-91
2021/08/17 02:05:57;;;;;;;6.90;3.60;;;;;;;13.44;100.00;99810.03;4848858;29;20018;-90
2021/08/17 02:08:23;;;;;;;7.30;4.10;;;;;;;13.62;100.00;99848.50;4848264;29;20034;-90
2021/08/17 02:10:49;;;;;;;6.78;4.47;;;;;;;13.68;100.00;99848.63;4864010;29;20085;-89
2021/08/17 02:13:17;;;;;;;6.95;3.90;;;;;;;13.76;100.00;99846.31;4848712;29;20022;-90
2021/08/17 02:15:46;;;;;;;7.93;3.70;;;;;;;13.60;100.00;99837.09;4863807;29;20489;-89
2021/08/17 02:18:12;;;;;;;9.63;4.30;;;;;;;14.01;100.00;99901.94;4847894;29;20014;-90
2021/08/17 02:20:38;;;;;;;6.10;3.33;;;;;;;13.73;100.00;99859.50;4849497;29;20046;-91
2021/08/17 02:23:05;;;;;;;8.18;3.97;;;;;;;13.77;100.00;99860.66;4848516;29;20058;-89
2021/08/17 02:25:30;;;;;;;11.55;4.30;;;;;;;13.60;100.00;99828.19;4849893;29;20021;-90
2021/08/17 02:27:56;;;;;;;6.70;3.97;;;;;;;13.72;100.00;99844.34;4848128;29;20023;-90
2021/08/17 02:30:22;;;;;;;6.47;4.28;;;;;;;13.58;100.00;99812.22;4849075;29;20065;-90
2021/08/17 02:32:47;;;;;;;7.25;4.47;;;;;;;13.81;100.00;99856.41;4849483;29;20027;-89
2021/08/17 02:35:13;;;;;;;8.30;4.18;;;;;;;13.61;100.00;99824.44;4849167;29;20066;-90
2021/08/17 02:37:39;;;;;;;7.57;4.22;;;;;;;13.80;100.00;99844.75;4848613;29;20046;-90
2021/08/17 02:40:06;;;;;;;5.38;3.90;;;;;;;13.66;100.00;99829.09;4849810;29;20052;-90
2021/08/17 02:42:33;;;;;;;6.32;3.97;;;;;;;13.62;100.00;99812.56;4849099;29;20026;-90
2021/08/17 02:44:59;;;;;;;11.30;4.88;;;;;;;13.55;100.00;99795.66;4849500;29;20038;-90
2021/08/17 02:47:26;;;;;;;7.10;4.28;;;;;;;13.59;100.00;99818.44;4848402;29;20034;-89
2021/08/17 02:49:51;;;;;;;6.78;4.55;;;;;;;13.69;100.00;99824.03;4849353;29;20039;-90
2021/08/17 02:54:54;;;;;;;7.85;4.07;;;;;;;13.64;100.00;99826.63;5857038;23;20027;-81
2021/08/17 02:59:55;;;;;;;6.13;4.07;;;;;;;13.53;100.00;99795.91;4879002;24;20065;-89
2021/08/17 03:02:21;;;;;;;7.35;4.15;;;;;;;13.73;100.00;99818.94;4849258;29;20035;-88
2021/08/17 03:04:46;;;;;;;9.48;4.15;;;;;;;14.01;100.00;99851.34;4848128;29;20022;-89
2021/08/17 03:07:12;;;;;;;6.10;3.90;;;;;;;13.70;100.00;99811.31;4849019;29;20045;-88
2021/08/17 03:09:38;;;;;;;8.80;4.18;;;;;;;13.54;100.00;99794.00;4848252;29;20095;-88
2021/08/17 03:12:03;;;;;;;7.47;4.13;;;;;;;13.51;100.00;99781.81;4848118;29;20015;-88
2021/08/17 03:14:29;;;;;;;6.97;3.88;;;;;;;13.97;100.00;99850.22;4847858;29;20063;-87
2021/08/17 03:16:55;;;;;;;7.25;3.80;;;;;;;13.76;100.00;99813.06;4844721;29;20038;-88
2021/08/17 03:19:24;;;;;;;6.72;3.72;;;;;;;13.66;100.00;99811.00;4844514;29;20034;-88
2021/08/17 03:21:49;;;;;;;8.50;3.60;;;;;;;13.91;100.00;99853.03;4862411;29;20125;-88
2021/08/17 03:24:15;;;;;;;6.43;3.67;;;;;;;13.66;100.00;99808.28;4858940;29;20034;-88
2021/08/17 03:26:41;;;;;;;7.93;3.53;;;;;;;13.91;100.00;99851.19;4866106;29;20026;-88
2021/08/17 03:29:07;;;;;;;5.80;3.42;;;;;;;13.59;100.00;99813.03;4866254;29;20054;-88
2021/08/17 03:31:33;;;;;;;4.82;3.60;;;;;;;13.42;100.00;99782.47;4865938;29;20049;-88
2021/08/17 03:33:58;;;;;;;8.63;3.78;;;;;;;13.48;100.00;99812.03;4866202;29;20042;-87
2021/08/17 03:36:24;;;;;;;6.95;3.58;;;;;;;13.35;100.00;99779.91;4867091;29;20010;-89
2021/08/17 03:38:50;;;;;;;5.70;3.90;;;;;;;13.30;100.00;99780.63;4867022;29;20020;-89
2021/08/17 03:41:15;;;;;;;8.38;3.85;;;;;;;13.20;100.00;99766.09;4866198;29;20006;-89
2021/08/17 03:43:41;;;;;;;6.15;3.55;;;;;;;13.34;100.00;99798.00;4865786;29;20037;-88
2021/08/17 03:46:07;;;;;;;8.23;3.95;;;;;;;13.33;100.00;99771.22;4861077;29;20063;-89
2021/08/17 03:48:33;;;;;;;8.02;3.90;;;;;;;13.73;100.00;99830.59;4847631;29;20014;-88
2021/08/17 03:50:59;;;;;;;5.93;3.80;;;;;;;13.39;100.00;99779.19;4848172;29;20010;-89
2021/08/17 03:53:26;;;;;;;6.18;4.10;;;;;;;13.37;100.00;99781.28;4848187;29;20030;-90
2021/08/17 03:55:52;;;;;;;8.63;4.30;;;;;;;13.44;100.00;99775.72;4847332;29;20046;-88
2021/08/17 03:58:18;;;;;;;7.50;4.15;;;;;;;13.88;100.00;99840.84;4843363;29;20209;-86
2021/08/17 04:00:44;;;;;;;8.93;4.80;;;;;;;13.46;100.00;99764.69;4846296;29;20042;-87
2021/08/17 04:03:10;;;;;;;13.90;4.70;;;;;;;13.62;100.00;99789.03;4841539;29;20055;-84
2021/08/17 04:05:36;;;;;;;7.50;4.25;;;;;;;13.99;100.00;99837.25;4825403;29;20076;-87
2021/08/17 04:08:04;;;;;;;7.32;4.40;;;;;;;13.93;100.00;99826.59;4825447;29;20038;-85
2021/08/17 04:10:31;;;;;;;7.55;4.40;;;;;;;13.76;100.00;99786.84;4825084;29;20027;-84
2021/08/17 04:12:56;;;;;;;8.15;3.90;;;;;;;13.69;100.00;99788.88;4841176;29;20101;-87
2021/08/17 04:15:22;;;;;;;6.45;3.95;;;;;;;13.54;100.00;99753.47;4856981;29;20027;-88
2021/08/17 04:17:47;;;;;;;6.63;3.85;;;;;;;13.52;100.00;99763.72;4843777;29;20031;-88
2021/08/17 04:22:48;;;;;;;8.45;4.00;;;;;;;13.52;100.00;99750.22;5147987;24;19920;-90
2021/08/17 04:25:14;;;;;;;6.47;3.50;;;;;;;13.59;100.00;99762.50;4847708;29;20098;-90
2021/08/17 04:27:39;;;;;;;7.00;3.97;;;;;;;13.69;100.00;99774.56;5510279;23;20042;-90
2021/08/17 04:35:19;;;;;;;7.55;3.60;;;;;;;13.71;100.00;99772.41;4856083;24;20066;-88
2021/08/17 04:37:45;;;;;;;7.80;3.50;;;;;;;13.44;100.00;99735.19;5131900;24;20021;-84
2021/08/17 04:40:10;;;;;;;7.82;3.78;;;;;;;13.48;100.00;99740.97;4845763;29;20054;-88
2021/08/17 04:42:36;;;;;;;9.88;3.45;;;;;;;13.58;100.00;99749.25;4847584;29;20018;-89
2021/08/17 04:45:03;;;;;;;6.93;3.20;;;;;;;13.83;100.00;99797.50;4852163;29;20033;-88
2021/08/17 04:47:28;;;;;;;4.63;3.03;;;;;;;13.63;100.00;99760.94;4843808;29;20026;-88
2021/08/17 04:49:56;;;;;;;4.28;2.90;;;;;;;13.78;100.00;99781.19;4847751;29;20064;-90
2021/08/17 04:52:22;;;;;;;7.18;3.00;;;;;;;13.64;100.00;99756.34;4846820;29;20155;-90
2021/08/17 04:54:47;;;;;;;6.22;3.10;;;;;;;13.53;100.00;99736.44;4846242;29;20042;-90
2021/08/17 04:57:16;;;;;;;6.60;2.85;;;;;;;13.72;100.00;99763.25;4848391;29;20105;-88
2021/08/17 04:59:41;;;;;;;4.32;2.90;;;;;;;14.01;100.00;99810.78;4856708;29;20027;-88
2021/08/17 05:02:07;;;;;;;6.38;2.92;;;;;;;13.67;100.00;99763.16;4865815;29;20049;-88
2021/08/17 05:04:33;;;;;;;7.25;3.10;;;;;;;13.67;100.00;99768.56;4848341;29;20050;-88
2021/08/17 05:06:58;;;;;;;5.50;2.80;;;;;;;13.72;100.00;99771.38;4847826;29;20029;-87
2021/08/17 05:09:25;;;;;;;4.32;2.67;;;;;;;13.77;100.00;99761.44;4851718;29;20018;-88
2021/08/17 05:11:51;;;;;;;5.60;2.85;;;;;;;13.97;100.00;99801.53;4854273;29;20030;-87
2021/08/17 05:14:17;;;;;;;5.18;2.97;;;;;;;13.69;100.00;99766.44;4834883;29;20029;-87
2021/08/17 05:16:42;;;;;;;7.18;2.58;;;;;;;13.97;100.00;99809.66;4840145;29;20068;-87
2021/08/17 05:19:08;;;;;;;6.63;3.10;;;;;;;14.00;100.00;99803.72;4850775;29;20069;-87
2021/08/17 05:21:34;;;;;;;9.45;2.92;;;;;;;13.86;100.00;99778.88;4850147;29;20031;-87
2021/08/17 05:23:59;;;;;;;7.43;2.95;;;;;;;13.54;100.00;99735.41;4851900;29;20061;-83
2021/08/17 05:26:25;;;;;;;5.93;2.97;;;;;;;13.49;100.00;99721.78;4852939;29;20019;-86
2021/08/17 05:28:51;;;;;;;5.88;2.92;;;;;;;13.66;100.00;99745.31;4858701;29;20084;-88
2021/08/17 05:31:19;;;;;;;5.38;3.00;;;;;;;13.56;100.00;99730.53;4861135;29;20053;-88
2021/08/17 05:33:47;;;;;;;6.07;2.55;;;;;;;13.73;100.00;99763.00;4853539;29;20109;-88
2021/08/17 05:36:13;;;;;;;9.82;3.05;;;;;;;13.62;100.00;99728.75;4850172;29;20022;-87
2021/08/17 05:38:38;;;;;;;6.32;2.80;;;;;;;14.02;100.00;99792.66;4849420;29;20095;-87
2021/08/17 05:41:05;;;;;;;6.38;2.97;;;;;;;13.75;100.00;99750.06;4849584;29;20006;-87
2021/08/17 05:43:31;;;;;;;4.97;2.90;;;;;;;13.78;100.00;99741.47;4848888;29;20014;-87
2021/08/17 05:45:57;;;;;;;8.15;3.00;;;;;;;13.79;100.00;99750.38;4849894;29;20034;-87
2021/08/17 05:48:22;;;;;;;4.68;2.75;;;;;;;13.61;100.00;99714.44;4860624;29;20038;-86
2021/08/17 05:50:48;;;;;;;4.95;2.60;;;;;;;13.71;100.00;99734.56;4866448;29;20038;-87
2021/08/17 05:53:14;;;;;;;5.22;2.60;;;;;;;13.65;100.00;99732.84;4862047;29;20023;-86
2021/08/17 05:55:39;;;;;;;4.85;2.60;;;;;;;13.62;100.00;99696.31;4852579;29;20068;-86
2021/08/17 05:58:05;;;;;;;3.88;2.50;;;;;;;13.80;100.00;99742.00;4834399;29;20033;-86
2021/08/17 06:00:31;;;;;;;4.90;2.25;;;;;;;13.59;100.00;99688.69;4860636;29;20026;-89
2021/08/17 06:02:57;;;;;;;3.63;2.50;;;;;;;13.52;100.00;99702.38;5033009;23;20051;-82
2021/08/17 06:05:24;;;;;;;4.65;2.20;;;;;;;13.73;100.00;99703.50;4867427;29;20062;-89
2021/08/17 06:07:51;;;;;;;3.65;2.42;;;;;;;13.82;100.00;99720.16;4877749;29;20010;-88
2021/08/17 06:10:20;;;;;;;4.20;2.70;;;;;;;13.63;100.00;99687.94;4867908;29;20030;-88
2021/08/17 06:12:46;;;;;;;6.63;2.45;;;;;;;13.92;100.00;99728.41;4882187;29;20045;-90
2021/08/17 06:15:13;;;;;;;3.28;2.28;;;;;;;13.64;100.00;99696.88;4885107;29;20030;-89
2021/08/17 06:17:39;;;;;;;6.35;3.03;;;;;;;13.65;100.00;99682.31;4885741;29;20016;-89
2021/08/17 06:20:06;;;;;;;3.00;2.00;;;;;;;13.68;100.00;99676.41;4885640;29;20037;-89
2021/08/17 06:22:32;;;;;;;4.70;2.10;;;;;;;13.58;100.00;99666.25;4884931;29;20013;-89
2021/08/17 06:24:58;;;;;;;3.97;2.13;;;;;;;13.75;100.00;99705.97;4874153;29;20035;-88
2021/08/17 06:27:23;;;;;;;4.78;2.38;;;;;;;13.71;100.00;99677.78;4856426;29;20059;-89
2021/08/17 06:29:49;;;;;;;6.55;2.10;;;;;;;14.17;100.00;99762.31;4849039;29;20068;-89
2021/08/17 06:32:15;;;;;;;5.18;1.90;;;;;;;13.82;100.00;99714.75;4856029;29;20077;-86
2021/08/17 06:34:41;;;;;;;6.97;2.00;;;;;;;14.29;100.00;99744.09;4861503;29;20037;-88
2021/08/17 06:37:06;;;;;;;5.32;2.10;;;;;;;13.96;100.00;99697.09;4870609;29;20022;-89
2021/08/17 06:44:42;;;;;;;3.85;1.80;;;;;;;13.93;100.00;99713.81;5442510;24;20038;-89
2021/08/17 06:47:08;;;;;;;5.38;1.80;;;;;;;13.98;100.00;99705.78;4849068;29;20103;-88
2021/08/17 06:49:33;;;;;;;5.22;1.60;;;;;;;14.21;100.00;99768.88;4844486;29;20039;-84
2021/08/17 06:51:59;;;;;;;3.17;1.60;;;;;;;14.01;100.00;99740.47;4843272;29;20037;-84
2021/08/17 06:54:25;;;;;;;2.70;1.70;;;;;;;14.25;100.00;99759.19;4836128;29;20042;-85
2021/08/17 06:56:51;;;;;;;3.47;1.50;;;;;;;13.74;100.00;99699.75;4829713;29;20063;-85
2021/08/17 06:59:16;;;;;;;4.72;1.83;;;;;;;13.79;100.00;99697.13;4838949;29;20034;-86
2021/08/17 07:01:42;;;;;;;2.50;1.63;;;;;;;13.84;100.00;99716.13;4844220;29;20019;-89
2021/08/17 07:04:07;;;;;;;4.05;1.50;;;;;;;13.90;100.00;99725.13;4848038;29;20025;-89
2021/08/17 07:06:35;;;;;;;2.58;1.60;;;;;;;14.22;100.00;99757.00;4847995;29;20030;-89
2021/08/17 07:09:05;;;;;;;2.83;1.70;;;;;;;13.97;100.00;99708.72;4848703;29;20002;-89
2021/08/17 07:11:31;;;;;;;3.22;1.60;;;;;;;13.77;100.00;99695.72;4847616;29;20010;-87
2021/08/17 07:13:57;;;;;;;5.32;1.80;;;;;;;13.78;100.00;99684.69;4864133;29;20049;-90
2021/08/17 07:16:23;;;;;;;4.22;1.60;;;;;;;13.98;100.00;99716.63;4866211;29;20097;-90
2021/08/17 07:18:49;;;;;;;2.25;1.48;;;;;;;14.27;100.00;99762.47;4865286;29;20126;-88
2021/08/17 07:21:14;;;;;;;5.38;2.20;;;;;;;14.21;100.00;99739.13;4850249;29;20029;-87
2021/08/17 07:23:40;;;;;;;7.05;1.92;;;;;;;14.28;100.00;99758.69;4837196;29;20118;-86
2021/08/17 07:26:05;;;;;;;6.20;2.03;;;;;;;14.33;100.00;99756.88;4853516;29;20042;-87
2021/08/17 07:28:32;;;;;;;7.82;2.40;;;;;;;14.36;100.00;99754.75;4847503;29;20039;-88
2021/08/17 07:30:57;;;;;;;5.80;2.00;;;;;;;14.10;100.00;99703.81;4844555;29;20038;-87
2021/08/17 07:33:23;;;;;;;6.85;2.40;;;;;;;14.08;100.00;99699.72;4857747;29;20017;-87
2021/08/17 07:35:49;;;;;;;3.22;1.73;;;;;;;14.06;100.00;99710.75;4852178;29;20014;-88
2021/08/17 07:38:15;;;;;;;4.03;1.85;;;;;;;14.34;100.00;99749.59;4855403;29;20026;-87
2021/08/17 07:40:41;;;;;;;3.97;1.60;;;;;;;14.07;100.00;99695.34;4857260;29;20034;-88
2021/08/17 07:43:06;;;;;;;3.08;1.48;;;;;;;14.09;100.00;99680.50;4847861;29;20055;-86
2021/08/17 07:45:32;;;;;;;4.50;1.60;;;;;;;13.97;100.00;99670.88;5300821;24;20048;-83
2021/08/17 07:47:58;;;;;;;2.53;1.55;;;;;;;13.98;100.00;99659.81;4848414;29;20102;-87
2021/08/17 07:50:24;;;;;;;4.80;1.60;;;;;;;13.96;100.00;99669.25;5068090;23;20055;-86
2021/08/17 08:00:24;;;;;;;2.67;1.50;;;;;;;14.66;100.00;99751.66;5522981;23;20034;-88
2021/08/17 08:02:50;;;;;;;2.67;1.60;;;;;;;14.20;100.00;99677.94;4880870;29;20060;-89
2021/08/17 08:05:15;;;;;;;2.63;1.63;;;;;;;14.08;100.00;99694.31;4857126;29;20045;-90
2021/08/17 08:30:57;;;;;;;4.25;1.90;;;;;;;14.33;97.98;99729.00;5448877;24;20064;-90
2021/08/17 08:33:23;;;;;;;2.40;1.58;;;;;;;14.24;98.00;99720.50;4881642;29;20061;-90
2021/08/17 08:35:49;;;;;;;4.45;1.48;;;;;;;14.83;98.16;99771.34;4858714;29;20034;-89
2021/08/17 08:38:14;;;;;;;3.22;1.70;;;;;;;14.37;98.16;99723.91;4847453;29;20061;-90
2021/08/17 08:40:44;;;;;;;4.93;1.70;;;;;;;14.63;98.39;99736.72;5225467;24;20295;-87
2021/08/17 08:43:11;;;;;;;2.58;1.50;;;;;;;14.40;97.40;99742.34;4846120;29;20030;-87
2021/08/17 08:45:38;;;;;;;2.53;1.30;;;;;;;14.60;97.89;99745.34;4870484;29;20090;-87
2021/08/17 08:48:05;;;;;;;2.28;1.40;;;;;;;14.62;98.10;99736.97;4847206;29;20015;-88
2021/08/17 08:50:33;;;;;;;2.35;1.30;;;;;;;14.46;98.10;99711.56;4844873;29;20048;-87
2021/08/17 08:52:59;;;;;;;4.70;1.73;;;;;;;14.42;98.30;99713.97;4847137;29;20030;-88
2021/08/17 08:55:25;;;;;;;2.45;1.73;;;;;;;14.67;98.74;99751.41;4846966;29;20034;-87
2021/08/17 08:57:53;;;;;;;3.03;1.50;;;;;;;14.99;98.48;99802.97;4844848;29;20098;-86
2021/08/17 09:00:19;;;;;;;2.70;1.20;;;;;;;14.45;97.93;99745.13;4846811;29;20074;-86
2021/08/17 09:02:45;;;;;;;3.72;1.35;;;;;;;14.47;97.48;99727.56;4848916;29;20038;-87
2021/08/17 09:05:10;;;;;;;2.55;1.40;;;;;;;14.42;97.56;99719.38;4853409;29;20201;-87
2021/08/17 09:07:47;;;;;;;3.38;1.40;;;;;;;14.90;97.57;99804.50;4848997;29;20036;-87
2021/08/17 09:10:24;;;;;;;3.72;1.50;;;;;;;14.60;97.37;99734.50;4846329;29;20018;-87
2021/08/17 09:12:56;;;;;;;2.25;1.40;;;;;;;14.48;97.62;99709.44;4840244;29;20022;-87
2021/08/17 09:15:33;;;;;;;2.97;1.50;;;;;;;14.84;97.17;99785.72;4856817;29;20027;-86
2021/08/17 09:18:03;;;;;;;3.33;1.50;;;;;;;15.10;97.01;99798.50;4839799;29;20064;-83
2021/08/17 09:20:39;;;;;;;3.25;1.60;;;;;;;14.69;97.42;99722.16;4854575;29;20006;-87
2021/08/17 09:23:37;;;;;;;3.72;1.50;;;;;;;15.13;97.21;99799.88;4844477;29;20073;-85
2021/08/17 09:26:24;;;;;;;2.88;1.50;;;;;;;14.80;96.53;99764.56;4852963;29;20030;-87
2021/08/17 09:28:59;;;;;;;3.17;1.42;;;;;;;14.84;96.51;99801.97;4843811;29;20040;-87
2021/08/17 09:31:38;;;;;;;2.90;1.50;;;;;;;14.54;96.27;99730.13;5040285;23;20906;-88
2021/08/17 09:34:08;;;;;;;4.57;1.85;;;;;;;14.42;97.12;99716.66;4904076;23;20054;-85
2021/08/17 09:36:38;;;;;;;2.33;1.42;;;;;;;14.25;96.43;99718.63;4968958;24;20190;-83
2021/08/17 09:39:04;;;;;;;2.95;1.45;;;;;;;14.22;96.00;99735.34;4866271;29;20026;-84
2021/08/17 09:41:30;;;;;;;5.28;1.70;;;;;;;14.42;96.61;99762.69;4865464;29;20032;-86
2021/08/17 09:44:05;;;;;;;5.68;1.75;;;;;;;14.28;97.65;99740.56;4870745;29;20056;-84
2021/08/17 09:46:32;;;;;;;;;;;;;;;14.74;97.68;99819.72;4878018;29;20037;-84
2021/08/17 09:49:20;;;;;;;5.85;2.03;;;;;;;14.28;98.39;99726.22;4863489;29;19927;-87
2021/08/17 09:51:46;;;;;;;4.60;2.17;;;;;;;14.21;98.72;99715.59;4860761;29;20038;-86
2021/08/17 09:54:18;;;;;;;5.22;1.70;;;;;;;14.81;98.24;99795.19;4867597;29;20018;-85
2021/08/17 09:56:55;;;;;;;4.68;2.10;;;;;;;14.61;98.32;99749.69;4871438;29;20090;-87
2021/08/17 09:59:21;;;;;;;2.30;1.40;;;;;;;14.98;97.74;99804.06;4869247;29;20062;-85
2021/08/17 10:01:47;;;;;;;4.22;1.73;;;;;;;15.00;98.39;99788.38;4968256;24;20041;-87
2021/08/17 10:04:15;;;;;;;2.45;1.27;;;;;;;14.86;97.04;99797.13;4836401;29;20018;-84
2021/08/17 10:11:51;;;;;;;5.28;1.73;;;;;;;14.12;98.46;99732.50;4867886;24;20062;-88
2021/08/17 10:14:17;;;;;;;4.85;1.70;;;;;;;14.28;98.60;99758.69;4843733;29;20027;-86
2021/08/17 10:16:44;;;;;;;1.83;1.38;;;;;;;14.31;98.79;99745.50;4843320;29;20048;-88
2021/08/17 10:19:12;;;;;;;6.53;1.80;;;;;;;14.23;99.28;99726.16;4848723;29;20026;-88
2021/08/17 10:21:42;;;;;;;4.43;1.70;;;;;;;14.39;99.00;99773.19;4876850;29;20032;-85
2021/08/17 10:24:23;;;;;;;6.80;2.10;;;;;;;14.64;99.27;99805.25;4847601;29;20031;-87
2021/08/17 10:26:51;;;;;;;5.78;1.63;;;;;;;14.17;99.56;99741.50;4849850;29;20038;-87
2021/08/17 10:34:37;;;;;;;7.30;1.83;;;;;;;14.36;99.68;99770.97;4848507;29;20038;-88
2021/08/17 10:39:37;;;;;;;3.53;1.48;;;;;;;14.26;99.20;99739.19;4860031;29;20038;-88
2021/08/17 10:42:39;;;;;;;4.30;1.60;;;;;;;14.65;99.48;99815.00;4861836;23;20050;-88
2021/08/17 10:45:25;;;;;;;4.88;1.80;;;;;;;14.80;99.96;99820.59;4839654;29;20022;-88
2021/08/17 10:47:51;;;;;;;6.22;1.60;;;;;;;14.66;99.84;99820.16;4851185;29;20055;-86
2021/08/17 10:50:32;;;;;;;6.47;1.90;;;;;;;14.78;99.56;99830.88;4854478;29;20086;-86
2021/08/17 10:52:57;;;;;;;4.22;1.58;;;;;;;14.77;99.26;99823.84;4844996;29;20048;-88
2021/08/17 10:55:26;;;;;;;9.55;2.03;;;;;;;14.73;99.59;99828.09;4841203;29;20070;-87
2021/08/17 10:57:54;;;;;;;3.65;1.80;;;;;;;14.73;98.72;99809.13;4850331;29;20014;-87
2021/08/17 11:02:56;;;;;;;3.47;1.70;;;;;;;14.75;99.26;99834.91;4903641;24;20042;-87
2021/08/17 11:05:48;;;;;;;3.08;1.40;;;;;;;14.34;98.68;99779.34;4848579;29;20022;-90
2021/08/17 11:08:32;;;;;;;3.67;1.50;;;;;;;14.87;98.50;99844.81;5084000;24;20074;-87
2021/08/17 11:10:59;;;;;;;4.88;1.65;;;;;;;14.48;98.40;99769.81;4853390;29;20094;-88
2021/08/17 11:13:26;;;;;;;4.70;1.60;;;;;;;14.50;98.60;99766.84;4842047;29;20061;-87
2021/08/17 11:16:11;;;;;;;3.83;1.75;;;;;;;14.98;99.19;99836.56;4842710;29;20023;-87
2021/08/17 11:18:50;;;;;;;5.50;1.95;;;;;;;14.93;99.47;99835.66;4867925;29;20006;-87
2021/08/17 11:21:35;;;;;;;3.83;1.70;;;;;;;14.81;99.08;99838.50;4851362;29;20022;-85
2021/08/17 11:24:12;;;;;;;4.53;1.60;;;;;;;14.85;100.00;99820.69;4848841;29;20043;-86
2021/08/17 11:29:40;;;;;;;3.83;1.80;;;;;;;14.88;99.93;99844.56;4875654;24;20046;-87
2021/08/17 11:32:10;;;;;;;5.45;1.98;;;;;;;14.87;99.70;99851.06;4867235;29;20048;-87
2021/08/17 11:34:38;;;;;;;3.25;1.30;;;;;;;14.38;99.61;99758.84;4880684;29;20078;-88
2021/08/17 11:39:46;;;;;;;2.80;1.23;;;;;;;14.51;99.62;99792.88;5199977;24;20042;-84
2021/08/17 11:42:23;;;;;;;4.13;1.65;;;;;;;14.46;99.66;99788.16;4849090;29;20046;-87
2021/08/17 11:47:51;;;;;;;5.28;1.60;;;;;;;14.43;99.61;99774.31;5163335;23;20068;-88
2021/08/17 11:50:19;;;;;;;3.40;1.55;;;;;;;14.31;99.30;99764.44;5517988;23;20029;-80
2021/08/17 11:52:55;;;;;;;3.33;1.50;;;;;;;14.50;99.30;99797.50;4851437;29;20086;-88
2021/08/17 11:58:10;;;;;;;2.60;1.63;;;;;;;14.37;99.44;99767.19;4863184;24;20052;-86
2021/08/17 12:00:37;;;;;;;4.00;1.75;;;;;;;14.88;99.53;99849.97;4848959;29;20062;-87
2021/08/17 12:03:06;;;;;;;4.85;1.60;;;;;;;14.50;100.00;99775.84;4841323;29;20036;-88
2021/08/17 12:05:37;;;;;;;4.18;1.60;;;;;;;14.70;99.47;99798.81;4847916;29;20014;-87
2021/08/17 12:08:05;;;;;;;4.60;2.10;;;;;;;14.78;99.70;99801.09;4850141;29;20019;-87
2021/08/17 12:10:33;;;;;;;7.18;2.20;;;;;;;14.66;100.00;99782.25;5160649;24;20042;-87
2021/08/17 12:13:00;;;;;;;3.45;1.77;;;;;;;15.07;99.89;99841.56;4897496;24;20072;-84
2021/08/17 12:15:38;;;;;;;2.60;1.70;;;;;;;14.59;99.50;99784.31;4958821;24;20077;-87
2021/08/17 12:18:17;;;;;;;3.90;1.40;;;;;;;14.69;99.56;99775.50;4941006;23;20050;-87
2021/08/17 12:20:43;;;;;;;7.15;1.52;;;;;;;15.08;99.21;99845.88;4848338;29;20031;-88
2021/08/17 12:23:25;;;;;;;2.58;1.10;;;;;;;14.97;98.51;99850.38;4848761;29;20048;-87
2021/08/17 12:26:09;;;;;;;3.67;1.38;;;;;;;14.63;98.52;99790.88;4909530;23;20028;-78
2021/08/17 12:28:36;;;;;;;6.28;1.27;;;;;;;14.57;98.27;99797.31;4855624;29;20035;-88
2021/08/17 12:31:07;;;;;;;4.05;1.50;;;;;;;14.65;98.97;99790.63;4833777;29;20025;-89
2021/08/17 12:33:32;;;;;;;4.95;1.70;;;;;;;14.67;99.20;99792.03;4846002;29;20102;-89
2021/08/17 12:35:58;;;;;;;5.07;1.80;;;;;;;14.76;99.41;99803.22;4848059;29;20023;-88
2021/08/17 12:38:24;;;;;;;2.58;1.20;;;;;;;14.46;98.99;99777.34;4847596;29;20026;-88
2021/08/17 12:40:53;;;;;;;2.55;1.23;;;;;;;14.68;98.93;99765.75;4861917;29;20069;-86
2021/08/17 12:43:20;;;;;;;2.08;1.17;;;;;;;14.60;98.69;99775.13;4846299;29;20046;-86
2021/08/17 12:45:46;;;;;;;2.05;1.40;;;;;;;15.11;98.56;99850.81;4839076;29;20086;-86
2021/08/17 12:48:19;;;;;;;3.90;1.40;;;;;;;14.49;97.83;99760.59;4847317;29;20046;-86
2021/08/17 12:50:47;;;;;;;3.50;1.08;;;;;;;14.93;97.68;99812.13;4846959;29;20038;-86
2021/08/17 12:53:31;;;;;;;3.90;1.33;;;;;;;14.74;97.62;99797.25;4846974;29;20050;-87
2021/08/17 12:55:58;;;;;;;2.55;1.15;;;;;;;14.80;97.85;99831.44;4813761;29;20072;-88
2021/08/17 14:13:20;;;;;;;6.18;1.40;;;;;;;14.87;98.47;99850.25;5261548;23;20042;-87
2021/08/17 14:18:21;;;;;;;5.57;1.27;;;;;;;14.87;97.33;99836.69;5889256;23;21536;-84
2021/08/17 14:33:36;;;;;;;1.27;0.75;;;;;;;14.75;97.46;99813.25;4848272;29;20069;-88
2021/08/17 14:36:03;;;;;;;2.20;0.82;;;;;;;14.69;97.17;99813.41;4859513;29;20065;-87